Time;durP1;ratioP1;P1;durP2;ratioP2;P2;SDS_P1;SDS_P2;PMS_P1;PMS_P2;Temp;Humidity;BMP_temperature;BMP_pressure;BME280_temperature;BME280_humidity;BME280_pressure;Samples;Min_cycle;Max_cycle;Signal;HPM_P1;HPM_P2
2023/04/09 00:00:16;;;;;;;39.93;23.47;;;5.70;99.90;;;5.04;84.46;102123.34;5097342;28;20189;-74
2023/04/09 00:02:48;;;;;;;43.60;23.87;;;5.70;99.90;;;4.95;85.12;102129.22;5096959;28;20193;-74
2023/04/09 00:05:20;;;;;;;41.57;26.03;;;5.60;99.90;;;4.94;85.01;102128.34;5096838;28;20200;-74
2023/04/09 00:07:52;;;;;;;54.27;26.57;;;5.60;99.90;;;4.95;86.05;102129.22;5096324;28;20708;-74
2023/04/09 00:10:25;;;;;;;47.70;26.73;;;5.60;99.90;;;4.94;85.95;102123.03;5096664;28;20193;-74
2023/04/09 00:12:57;;;;;;;43.40;25.53;;;5.60;99.90;;;4.88;86.24;102115.44;5096683;28;20189;-74
2023/04/09 00:15:29;;;;;;;45.60;26.03;;;5.50;99.90;;;4.87;86.17;102115.53;5096859;28;20197;-74
2023/04/09 00:18:02;;;;;;;52.50;26.50;;;5.50;99.90;;;4.86;86.63;102122.63;5096063;28;20569;-74
2023/04/09 00:20:34;;;;;;;47.63;25.30;;;5.50;99.90;;;4.87;86.41;102113.72;5096531;28;20246;-74
2023/04/09 00:23:06;;;;;;;35.83;24.50;;;5.60;99.90;;;4.85;86.29;102122.72;5096548;28;20193;-74
2023/04/09 00:25:39;;;;;;;38.27;23.43;;;5.50;99.90;;;4.86;87.37;102119.97;5096694;28;20194;-74
2023/04/09 00:28:11;;;;;;;43.53;25.33;;;5.50;99.90;;;4.91;87.28;102112.59;5097325;28;20228;-74
2023/04/09 00:30:43;;;;;;;37.70;25.13;;;5.60;99.90;;;4.87;86.97;102112.88;5096040;28;20189;-74
2023/04/09 00:33:15;;;;;;;39.17;24.93;;;5.60;99.90;;;4.95;87.33;102119.44;5096277;28;20193;-73
2023/04/09 00:35:47;;;;;;;38.43;24.93;;;5.60;99.90;;;4.92;86.91;102114.31;5096021;28;20189;-74
2023/04/09 00:38:19;;;;;;;39.97;25.80;;;5.60;99.90;;;4.94;86.74;102112.41;5095530;28;20221;-74
2023/04/09 00:40:54;;;;;;;40.17;25.23;;;5.60;99.90;;;4.98;86.34;102113.09;5095846;28;20196;-74
2023/04/09 00:43:26;;;;;;;31.47;22.87;;;5.70;99.90;;;5.00;86.18;102108.56;5096129;28;20184;-74
2023/04/09 00:45:58;;;;;;;69.67;25.60;;;5.70;99.90;;;4.90;86.52;102104.72;5095702;28;20668;-75
2023/04/09 00:48:30;;;;;;;98.77;26.73;;;5.70;99.90;;;4.87;86.44;102104.91;5095698;28;20188;-74
2023/04/09 00:51:02;;;;;;;51.90;25.33;;;5.60;99.90;;;4.86;87.53;102108.53;5095953;28;20197;-74
2023/04/09 00:53:34;;;;;;;39.87;25.20;;;5.50;99.90;;;4.88;87.25;102106.63;5096448;28;20189;-75
2023/04/09 00:56:10;;;;;;;50.03;25.37;;;5.60;99.90;;;4.85;87.76;102112.13;5095493;28;20670;-74
2023/04/09 00:58:44;;;;;;;38.07;24.10;;;5.50;99.90;;;4.80;87.02;102099.09;5095420;28;20696;-74
2023/04/09 01:01:16;;;;;;;36.90;24.17;;;5.50;99.90;;;4.85;87.31;102107.66;5095702;28;20196;-74
2023/04/09 01:03:48;;;;;;;37.83;25.90;;;5.50;99.90;;;4.83;87.32;102104.22;5095745;28;20195;-74
2023/04/09 01:06:30;;;;;;;45.77;27.83;;;5.50;99.90;;;4.76;87.57;102107.38;5095554;28;20224;-74
2023/04/09 01:09:12;;;;;;;43.57;26.53;;;5.50;99.90;;;4.74;88.10;102104.78;5095613;28;20200;-74
2023/04/09 01:11:55;;;;;;;35.43;24.70;;;5.40;99.90;;;4.76;87.58;102102.88;5095547;28;20192;-74
2023/04/09 01:14:34;;;;;;;56.57;26.00;;;5.50;99.90;;;4.77;87.49;102103.75;5095134;28;20200;-73
2023/04/09 01:17:16;;;;;;;74.30;25.70;;;5.50;99.90;;;4.75;87.35;102103.00;5095013;28;20224;-74
2023/04/09 01:19:58;;;;;;;43.63;25.00;;;5.40;99.90;;;4.76;87.61;102107.38;5095293;28;20209;-74
2023/04/09 01:22:42;;;;;;;39.40;25.30;;;5.40;99.90;;;4.74;86.65;102109.22;5095978;28;20188;-74
2023/04/09 01:25:29;;;;;;;42.17;23.30;;;5.50;99.90;;;4.73;88.09;102103.06;5094930;28;20630;-74
2023/04/09 01:28:15;;;;;;;34.60;24.13;;;5.40;99.90;;;4.78;87.22;102105.47;5095122;28;20229;-74
2023/04/09 01:30:53;;;;;;;33.00;23.33;;;5.50;99.90;;;4.72;87.28;102105.81;5094817;28;20564;-74
2023/04/09 01:33:29;;;;;;;30.97;23.03;;;5.40;99.90;;;4.72;87.17;102111.13;5095309;28;20279;-74
2023/04/09 01:36:04;;;;;;;37.27;22.70;;;5.40;99.90;;;4.69;86.74;102100.69;5094627;28;20189;-74
2023/04/09 01:38:39;;;;;;;44.03;23.63;;;5.40;99.90;;;4.65;87.07;102102.69;5094984;28;20192;-73
2023/04/09 01:41:17;;;;;;;50.83;23.20;;;5.30;99.90;;;4.60;87.02;102099.44;5094912;28;20192;-75
2023/04/09 01:43:51;;;;;;;33.60;23.50;;;5.30;99.90;;;4.63;87.80;102095.72;5094568;28;20621;-74
2023/04/09 01:46:24;;;;;;;30.70;23.07;;;5.30;99.90;;;4.66;87.40;102090.28;5094753;28;20220;-74
2023/04/09 01:48:58;;;;;;;32.00;24.23;;;5.40;99.90;;;4.67;87.12;102091.97;5094818;28;20189;-73
2023/04/09 01:51:31;;;;;;;32.20;22.53;;;5.40;99.90;;;4.63;86.99;102088.63;5093781;28;20193;-74
2023/04/09 01:54:03;;;;;;;46.57;23.47;;;5.40;99.90;;;4.68;86.65;102089.22;5094681;28;20196;-74
2023/04/09 01:56:45;;;;;;;53.70;22.77;;;5.40;99.90;;;4.66;87.12;102084.97;5094610;28;20357;-74
2023/04/09 01:59:18;;;;;;;82.10;23.83;;;5.40;99.90;;;4.60;86.55;102084.38;5094167;28;20611;-74
2023/04/09 02:01:58;;;;;;;41.90;22.53;;;5.30;99.90;;;4.64;86.06;102076.22;5094522;28;20189;-74
2023/04/09 02:04:39;;;;;;;35.03;22.43;;;5.40;99.90;;;4.74;86.21;102077.41;5094500;28;20213;-74
2023/04/09 02:07:19;;;;;;;31.17;21.90;;;5.50;99.90;;;4.71;86.99;102082.88;5094421;28;20232;-74
2023/04/09 02:09:53;;;;;;;29.03;21.63;;;5.40;99.90;;;4.69;86.65;102079.47;5094075;28;20637;-74
2023/04/09 02:12:29;;;;;;;105.70;24.10;;;5.40;99.90;;;4.58;86.97;102078.31;5094344;28;20192;-74
2023/04/09 02:15:04;;;;;;;52.20;24.37;;;5.30;99.90;;;4.53;87.91;102083.00;5094021;28;20655;-74
2023/04/09 02:17:35;;;;;;;37.37;21.97;;;5.20;99.90;;;4.51;86.74;102076.09;5093846;28;20277;-73
2023/04/09 02:20:10;;;;;;;25.97;20.40;;;5.20;99.90;;;4.48;87.20;102081.59;5094175;28;20262;-73
2023/04/09 02:22:42;;;;;;;29.90;21.77;;;5.20;99.90;;;4.39;87.05;102082.94;5094172;28;20195;-74
2023/04/09 02:25:15;;;;;;;40.17;21.03;;;5.10;99.90;;;4.32;86.91;102084.25;5094185;28;20196;-74
2023/04/09 02:27:47;;;;;;;34.27;21.50;;;5.00;99.90;;;4.37;86.72;102084.84;5094239;28;20240;-74
2023/04/09 02:30:20;;;;;;;28.40;19.57;;;5.10;99.90;;;4.41;86.30;102091.69;5094061;28;20193;-74
2023/04/09 02:32:52;;;;;;;30.10;20.40;;;5.10;99.90;;;4.37;86.54;102090.16;5093750;28;20559;-74
2023/04/09 02:35:24;;;;;;;31.30;22.07;;;5.10;99.90;;;4.40;87.02;102092.63;5093984;28;20208;-74
2023/04/09 02:37:55;;;;;;;31.70;21.23;;;5.10;99.90;;;4.41;85.95;102085.53;5093887;28;20224;-74
2023/04/09 02:40:27;;;;;;;26.90;21.03;;;5.20;99.90;;;4.45;85.79;102081.75;5093928;28;20213;-74
2023/04/09 02:42:59;;;;;;;29.53;21.93;;;5.10;99.90;;;4.42;86.25;102081.91;5093950;28;20200;-74
2023/04/09 02:45:32;;;;;;;33.07;22.30;;;5.10;99.90;;;4.40;86.61;102089.13;5093916;28;20189;-74
2023/04/09 02:48:04;;;;;;;33.83;21.53;;;5.10;99.90;;;4.42;86.25;102080.13;5093992;28;20248;-74
2023/04/09 02:50:37;;;;;;;65.10;23.10;;;5.20;99.90;;;4.28;85.84;102085.34;5093416;28;20698;-74
2023/04/09 02:53:09;;;;;;;31.20;21.33;;;5.10;99.90;;;4.29;86.79;102086.22;5093692;28;20192;-74
2023/04/09 02:55:41;;;;;;;33.10;21.27;;;5.00;99.90;;;4.26;86.88;102079.31;5093384;28;20665;-74
2023/04/09 02:58:12;;;;;;;39.20;22.20;;;5.00;99.90;;;4.18;87.14;102078.88;5093446;28;20236;-74
2023/04/09 03:00:46;;;;;;;45.10;22.57;;;4.90;99.90;;;4.15;87.06;102079.03;5093827;28;20235;-74
2023/04/09 03:03:17;;;;;;;40.10;21.13;;;4.90;99.90;;;4.07;86.56;102076.00;5093293;28;20242;-74
2023/04/09 03:05:49;;;;;;;112.67;23.53;;;4.80;99.90;;;4.11;86.16;102077.50;5093302;28;20642;-73
2023/04/09 03:08:21;;;;;;;28.07;21.33;;;4.90;99.90;;;4.13;86.92;102075.63;5093623;28;20193;-74
2023/04/09 03:10:53;;;;;;;65.90;22.27;;;4.80;99.90;;;4.10;87.78;102070.50;5093558;28;20318;-74
2023/04/09 03:13:27;;;;;;;35.47;21.67;;;4.90;99.90;;;4.13;86.88;102070.34;5093189;28;20576;-74
2023/04/09 03:16:00;;;;;;;34.80;21.07;;;4.90;99.90;;;4.04;86.60;102065.56;5093353;28;20192;-74
2023/04/09 03:18:32;;;;;;;36.43;22.90;;;4.80;99.90;;;4.01;87.88;102063.06;5093127;28;20232;-74
2023/04/09 03:21:07;;;;;;;27.20;20.73;;;4.80;99.90;;;4.11;87.28;102060.78;5093436;28;20212;-74
2023/04/09 03:23:39;;;;;;;120.63;24.07;;;4.90;99.90;;;4.02;86.47;102063.00;5093426;28;20191;-74
2023/04/09 03:26:11;;;;;;;27.90;21.70;;;4.80;99.90;;;4.01;88.19;102060.41;5093367;28;20200;-74
2023/04/09 03:28:43;;;;;;;35.57;22.57;;;4.70;99.90;;;4.03;87.93;102061.19;5093399;28;20189;-73
2023/04/09 03:31:16;;;;;;;36.43;22.40;;;4.80;99.90;;;3.98;87.43;102065.88;5093360;28;20181;-73
2023/04/09 03:33:48;;;;;;;30.97;21.93;;;4.70;99.90;;;4.01;87.52;102063.06;5093320;28;20204;-74
2023/04/09 03:36:20;;;;;;;45.30;21.27;;;4.80;99.90;;;4.02;87.80;102067.44;5093321;28;20231;-74
2023/04/09 03:38:51;;;;;;;63.20;22.53;;;4.80;99.90;;;3.92;88.07;102069.75;5093616;28;20228;-74
2023/04/09 03:41:24;;;;;;;76.80;21.17;;;4.70;99.90;;;3.78;88.39;102063.50;5093496;28;20586;-74
2023/04/09 03:43:56;;;;;;;65.90;23.67;;;4.50;99.90;;;3.84;88.30;102065.78;5093860;28;20585;-74
2023/04/09 03:46:29;;;;;;;33.23;22.53;;;4.60;99.90;;;3.91;88.46;102070.69;5093223;28;20221;-73
2023/04/09 03:49:01;;;;;;;38.73;21.50;;;4.60;99.90;;;3.84;88.26;102065.78;5093010;28;20613;-74
2023/04/09 03:51:33;;;;;;;45.40;21.13;;;4.60;99.90;;;3.87;88.47;102063.00;5093188;28;20192;-74
2023/04/09 03:54:04;;;;;;;30.83;21.07;;;4.60;99.90;;;3.94;88.23;102067.00;5093147;28;20189;-74
2023/04/09 03:56:36;;;;;;;51.97;22.33;;;4.70;99.90;;;3.97;87.99;102069.50;5093381;28;20233;-73
2023/04/09 03:59:08;;;;;;;44.50;22.60;;;4.70;99.90;;;4.01;88.54;102077.16;5092829;28;20217;-74
2023/04/09 04:01:42;;;;;;;33.17;22.37;;;4.80;99.90;;;4.02;88.01;102072.72;5093120;28;20287;-73
2023/04/09 04:04:14;;;;;;;39.13;21.73;;;4.80;99.90;;;4.00;88.57;102074.63;5093020;28;20247;-73
2023/04/09 04:06:46;;;;;;;38.80;22.13;;;4.70;99.90;;;4.04;87.71;102076.16;5092992;28;20229;-74
2023/04/09 04:09:18;;;;;;;27.67;20.83;;;4.80;99.90;;;4.01;87.41;102071.00;5092734;28;20193;-74
2023/04/09 04:11:50;;;;;;;46.13;21.60;;;4.80;99.90;;;3.91;87.51;102072.47;5093111;28;20193;-74
2023/04/09 04:14:22;;;;;;;29.20;22.17;;;4.70;99.90;;;3.91;89.04;102080.41;5094420;28;20216;-73
2023/04/09 04:16:55;;;;;;;40.53;20.80;;;4.60;99.90;;;3.88;89.10;102067.34;5096269;28;20632;-74
2023/04/09 04:19:27;;;;;;;37.97;23.57;;;4.70;99.90;;;3.89;89.66;102071.72;5096298;28;20553;-73
2023/04/09 04:21:59;;;;;;;37.73;22.57;;;4.60;99.90;;;3.92;88.25;102074.19;5096452;28;20262;-74
2023/04/09 04:24:31;;;;;;;73.43;23.03;;;4.70;99.90;;;3.79;88.38;102070.50;5096477;28;20185;-74
2023/04/09 04:27:04;;;;;;;86.87;23.50;;;4.60;99.90;;;3.78;88.73;102082.03;5096041;28;20573;-73
2023/04/09 04:29:36;;;;;;;34.70;23.33;;;4.60;99.90;;;3.85;89.17;102076.31;5096361;28;20189;-73
2023/04/09 04:32:10;;;;;;;111.90;22.73;;;4.60;99.90;;;3.78;88.48;102084.69;5096305;28;20189;-73
2023/04/09 04:34:41;;;;;;;44.37;22.73;;;4.60;99.90;;;3.82;89.41;102078.28;5096305;28;20189;-74
2023/04/09 04:37:15;;;;;;;32.10;22.27;;;4.60;99.90;;;3.90;89.03;102084.88;5097005;28;20232;-73
2023/04/09 04:39:47;;;;;;;37.33;21.30;;;4.70;99.90;;;3.92;88.94;102077.69;5096024;28;20656;-73
2023/04/09 04:42:19;;;;;;;54.53;23.57;;;4.70;99.90;;;3.85;89.87;102083.41;5096945;28;20205;-74
2023/04/09 04:44:51;;;;;;;38.50;24.40;;;4.60;99.90;;;3.86;89.81;102079.84;5096221;28;20189;-74
2023/04/09 04:47:26;;;;;;;76.63;24.93;;;4.60;99.90;;;3.81;89.73;102092.47;5096095;28;20232;-74
2023/04/09 04:49:58;;;;;;;43.77;23.67;;;4.60;99.90;;;3.85;90.02;102099.31;5096179;28;20574;-74
2023/04/09 04:52:30;;;;;;;33.40;21.97;;;4.60;99.90;;;3.83;90.38;102094.13;5096016;28;20185;-74
2023/04/09 04:55:02;;;;;;;54.17;23.60;;;4.60;99.90;;;3.88;89.62;102086.75;5096166;28;20222;-74
2023/04/09 04:57:35;;;;;;;70.33;24.50;;;4.70;99.90;;;3.87;89.86;102089.50;5095529;28;20708;-74
2023/04/09 05:00:09;;;;;;;42.33;23.00;;;4.70;99.90;;;3.87;90.51;102089.50;5095973;28;20200;-74
2023/04/09 05:02:42;;;;;;;31.70;22.67;;;4.60;99.90;;;3.90;90.17;102090.19;5095989;28;20211;-73
2023/04/09 05:05:14;;;;;;;41.63;22.17;;;4.70;99.90;;;3.92;89.80;102100.69;5095452;28;20697;-73
2023/04/09 05:07:46;;;;;;;38.33;22.83;;;4.70;99.90;;;3.91;89.97;102096.31;5095689;28;20228;-73
2023/04/09 05:10:18;;;;;;;38.80;23.97;;;4.70;99.90;;;3.95;89.83;102105.81;5095706;28;20185;-74
2023/04/09 05:12:49;;;;;;;61.70;23.63;;;4.70;99.90;;;3.88;89.57;102117.69;5095695;28;20181;-74
2023/04/09 05:15:21;;;;;;;62.80;23.93;;;4.70;99.90;;;3.84;90.39;102108.19;5095615;28;20215;-74
2023/04/09 05:17:54;;;;;;;52.90;23.80;;;4.60;99.90;;;3.79;90.23;102108.47;5095518;28;20232;-74
2023/04/09 05:20:27;;;;;;;73.97;22.83;;;4.60;99.90;;;3.69;90.16;102103.75;5096316;28;20200;-73
2023/04/09 05:22:59;;;;;;;43.13;24.63;;;4.50;99.90;;;3.74;90.74;102109.63;5095165;28;20555;-73
2023/04/09 05:25:30;;;;;;;47.90;24.10;;;4.50;99.90;;;3.74;90.43;102104.31;5095221;28;20215;-73
2023/04/09 05:28:02;;;;;;;42.33;22.73;;;4.50;99.90;;;3.78;90.44;102109.38;5095312;28;20306;-74
2023/04/09 05:30:34;;;;;;;40.13;23.30;;;4.50;99.90;;;3.81;90.42;102105.72;5095003;28;20545;-74
2023/04/09 05:33:07;;;;;;;39.67;22.73;;;4.60;99.90;;;3.80;89.98;102109.31;5094894;28;20288;-74
2023/04/09 05:35:42;;;;;;;49.50;23.03;;;4.60;99.90;;;3.80;89.45;102102.19;5095154;28;20197;-74
2023/04/09 05:38:14;;;;;;;46.33;21.73;;;4.60;99.90;;;3.79;90.10;102097.00;5095212;28;20225;-74
2023/04/09 05:40:47;;;;;;;53.43;23.67;;;4.60;99.90;;;3.82;89.57;102110.06;5094908;28;20193;-74
2023/04/09 05:43:19;;;;;;;47.50;22.37;;;4.60;99.90;;;3.88;89.70;102107.09;5094620;28;20563;-74
2023/04/09 05:45:51;;;;;;;54.03;23.13;;;4.60;99.90;;;3.86;90.10;102114.28;5095420;28;20196;-74
2023/04/09 05:48:25;;;;;;;40.00;22.73;;;4.60;99.90;;;3.90;90.26;102110.53;5094812;28;20196;-74
2023/04/09 05:50:57;;;;;;;42.03;21.67;;;4.70;99.90;;;3.91;90.08;102117.50;5094785;28;20239;-74
2023/04/09 05:53:31;;;;;;;52.07;22.43;;;4.70;99.90;;;3.88;90.07;102107.94;5094747;28;20199;-74
2023/04/09 05:56:03;;;;;;;42.43;22.23;;;4.70;99.90;;;3.92;89.37;102114.78;5094285;28;20645;-74
2023/04/09 05:58:35;;;;;;;96.43;23.83;;;4.70;99.90;;;3.88;90.09;102115.03;5094273;28;20227;-74
2023/04/09 06:01:07;;;;;;;33.07;21.70;;;4.70;99.90;;;3.91;90.23;102107.78;5094506;28;20189;-74
2023/04/09 06:03:40;;;;;;;38.33;22.80;;;4.70;99.90;;;3.94;90.68;102112.03;5094532;28;20188;-74
2023/04/09 06:06:12;;;;;;;33.93;22.53;;;4.70;99.90;;;3.94;90.41;102102.28;5094422;28;20287;-74
2023/04/09 06:08:44;;;;;;;34.03;22.17;;;4.70;99.90;;;3.97;90.52;102117.19;5094440;28;20181;-74
2023/04/09 06:11:16;;;;;;;53.00;22.40;;;4.70;99.90;;;3.95;89.86;102116.41;5094324;28;20209;-74
2023/04/09 06:13:48;;;;;;;36.23;22.93;;;4.70;99.90;;;3.94;91.15;102123.50;5094240;28;20664;-74
2023/04/09 06:16:20;;;;;;;39.37;24.73;;;4.70;99.90;;;3.95;90.62;102121.69;5094496;28;20224;-74
2023/04/09 06:18:55;;;;;;;39.23;24.63;;;4.70;99.90;;;3.98;90.70;102109.16;5094286;28;20289;-74
2023/04/09 06:21:27;;;;;;;36.70;23.03;;;4.80;99.90;;;4.03;90.59;102115.06;5093789;28;20723;-74
2023/04/09 06:23:59;;;;;;;33.53;23.00;;;4.80;99.90;;;4.07;90.67;102121.03;5094415;28;20195;-74
2023/04/09 06:26:31;;;;;;;34.50;23.77;;;4.90;99.90;;;4.13;90.45;102119.84;5094071;28;20228;-74
2023/04/09 06:29:03;;;;;;;33.33;22.57;;;4.90;99.90;;;4.13;90.63;102123.34;5094087;28;20267;-74
2023/04/09 06:31:35;;;;;;;33.70;23.93;;;5.00;99.90;;;4.11;91.28;102127.84;5093714;28;20594;-74
2023/04/09 06:34:09;;;;;;;37.83;24.97;;;4.90;99.90;;;4.13;91.63;102123.34;5093659;28;20598;-74
2023/04/09 06:36:42;;;;;;;39.53;25.03;;;4.90;99.90;;;4.21;91.81;102120.28;5093001;28;20220;-74
2023/04/09 06:39:14;;;;;;;33.73;22.57;;;5.00;99.90;;;4.27;91.93;102126.09;5093718;28;20568;-74
2023/04/09 06:41:46;;;;;;;40.10;25.73;;;5.10;99.90;;;4.27;91.84;102123.44;5093990;28;20213;-74
2023/04/09 06:44:18;;;;;;;36.07;24.60;;;5.10;99.90;;;4.34;91.77;102126.59;5094012;28;20196;-74
2023/04/09 06:46:50;;;;;;;40.60;25.13;;;5.20;99.90;;;4.38;91.97;102125.47;5093900;28;20252;-74
2023/04/09 06:49:23;;;;;;;37.37;25.03;;;5.20;99.90;;;4.41;91.57;102127.97;5094030;28;20220;-74
2023/04/09 06:51:55;;;;;;;36.13;24.87;;;5.20;99.90;;;4.45;92.15;102125.03;5093937;28;20189;-74
2023/04/09 06:54:27;;;;;;;41.07;26.60;;;5.30;99.90;;;4.44;91.59;102122.47;5093843;28;20193;-74
2023/04/09 06:56:59;;;;;;;44.37;28.33;;;5.30;99.90;;;4.48;92.21;102124.00;5093739;28;20229;-74
2023/04/09 06:59:32;;;;;;;46.77;28.87;;;5.30;99.90;;;4.51;92.43;102124.69;5093372;28;20216;-74
2023/04/09 07:02:04;;;;;;;40.57;25.73;;;5.30;99.90;;;4.55;92.62;102130.69;5093347;28;20216;-74
2023/04/09 07:04:38;;;;;;;42.67;27.73;;;5.40;99.90;;;4.60;93.00;102134.75;5093748;28;20313;-73
2023/04/09 07:07:09;;;;;;;46.80;29.37;;;5.40;99.90;;;4.64;92.71;102137.25;5093618;28;20282;-74
2023/04/09 07:09:42;;;;;;;50.80;30.30;;;5.50;99.90;;;4.67;93.34;102139.72;5093668;28;20189;-74
2023/04/09 07:12:15;;;;;;;49.13;29.67;;;5.50;99.90;;;4.70;93.11;102145.69;5093351;28;20642;-74
2023/04/09 07:14:47;;;;;;;47.37;28.90;;;5.50;99.90;;;4.73;92.85;102134.91;5093629;28;20200;-74
2023/04/09 07:17:19;;;;;;;42.20;27.47;;;5.60;99.90;;;4.77;93.08;102130.28;5093535;28;20233;-74
2023/04/09 07:19:53;;;;;;;48.93;29.43;;;5.60;99.90;;;4.82;93.31;102133.53;5093615;28;20305;-74
2023/04/09 07:22:26;;;;;;;38.83;25.50;;;5.70;99.90;;;4.85;92.99;102134.19;5093473;28;20209;-74
2023/04/09 07:24:58;;;;;;;42.73;27.43;;;5.70;99.90;;;4.89;92.58;102137.53;5093228;28;20552;-74
2023/04/09 07:27:32;;;;;;;47.00;29.97;;;5.70;99.90;;;4.92;93.09;102132.03;5093097;28;20589;-74
2023/04/09 07:30:04;;;;;;;45.53;29.00;;;5.80;99.90;;;4.96;92.91;102136.22;5093493;28;20193;-74
2023/04/09 07:32:36;;;;;;;46.60;28.80;;;5.80;99.90;;;4.99;93.43;102128.94;5093472;28;20185;-74
2023/04/09 07:35:12;;;;;;;45.43;26.97;;;5.80;99.90;;;5.03;92.92;102127.78;5093465;28;20188;-74
2023/04/09 07:37:44;;;;;;;47.10;29.73;;;5.90;99.90;;;5.07;93.13;102133.78;5093371;28;20303;-74
2023/04/09 07:40:16;;;;;;;47.93;29.63;;;5.90;99.90;;;5.11;93.26;102136.16;5093123;28;20651;-74
2023/04/09 07:42:49;;;;;;;46.53;27.67;;;5.90;99.90;;;5.16;93.22;102143.00;5093279;28;20205;-74
2023/04/09 07:45:22;;;;;;;47.97;28.53;;;6.00;99.90;;;5.19;92.78;102138.38;5093336;28;20189;-74
2023/04/09 07:47:53;;;;;;;39.23;25.80;;;6.00;99.90;;;5.21;92.96;102136.47;5093300;28;20228;-74
2023/04/09 07:50:28;;;;;;;40.80;25.97;;;6.10;99.90;;;5.24;92.40;102140.75;5096540;28;20193;-74
2023/04/09 07:53:01;;;;;;;44.80;27.20;;;6.10;99.90;;;5.25;92.01;102137.13;5097118;28;20199;-74
2023/04/09 07:55:33;;;;;;;45.77;28.27;;;6.10;99.90;;;5.30;91.98;102146.56;5096677;28;20189;-77
2023/04/09 07:58:06;;;;;;;44.93;27.57;;;6.20;99.90;;;5.33;92.18;102141.06;5096859;28;20237;-76
2023/04/09 08:00:37;;;;;;;43.50;26.87;;;6.20;99.90;;;5.31;91.20;102134.13;5096722;28;20559;-76
2023/04/09 08:03:12;;;;;;;44.33;27.40;;;6.20;99.90;;;5.33;90.69;102141.06;5096940;28;20212;-76
2023/04/09 08:05:45;;;;;;;46.23;28.20;;;6.20;99.90;;;5.38;91.13;102144.25;5096964;28;20200;-76
2023/04/09 08:08:18;;;;;;;42.70;27.37;;;6.20;99.90;;;5.39;90.70;102145.97;5097980;28;20228;-75
2023/04/09 08:10:50;;;;;;;46.83;28.63;;;6.20;99.90;;;5.41;90.73;102137.94;5096878;28;20193;-76
2023/04/09 08:13:22;;;;;;;42.63;26.83;;;6.30;99.90;;;5.45;90.68;102137.63;5096838;28;20191;-76
2023/04/09 08:15:54;;;;;;;46.23;28.07;;;6.30;99.90;;;5.45;90.69;102140.28;5096516;28;20234;-76
2023/04/09 08:18:26;;;;;;;41.37;26.77;;;6.30;99.90;;;5.48;90.24;102137.44;5096723;28;20197;-77
2023/04/09 08:21:04;;;;;;;38.40;24.87;;;6.30;99.90;;;5.49;89.87;102136.50;5096647;28;20641;-77
2023/04/09 08:23:36;;;;;;;40.73;26.07;;;6.30;99.90;;;5.53;89.92;102132.72;5096543;28;20217;-76
2023/04/09 08:26:08;;;;;;;40.57;26.50;;;6.40;99.90;;;5.58;89.68;102141.25;5096548;28;20197;-76
2023/04/09 08:28:41;;;;;;;43.20;27.57;;;6.40;99.90;;;5.59;89.42;102135.00;5096594;28;20192;-76
2023/04/09 08:31:14;;;;;;;43.43;27.60;;;6.40;99.90;;;5.63;89.40;102140.97;5096185;28;20192;-76
2023/04/09 08:33:46;;;;;;;43.23;27.30;;;6.40;99.90;;;5.67;89.21;102144.28;5096487;28;20185;-76
2023/04/09 08:36:19;;;;;;;40.57;25.53;;;6.50;99.90;;;5.70;89.21;102138.78;5096270;28;20235;-76
2023/04/09 08:38:51;;;;;;;37.47;25.30;;;6.50;99.90;;;5.72;88.76;102144.88;5096347;28;20272;-76
2023/04/09 08:41:27;;;;;;;39.10;25.70;;;6.50;99.90;;;5.76;88.60;102146.38;5096252;28;20185;-76
2023/04/09 08:44:00;;;;;;;41.90;27.10;;;6.60;99.90;;;5.78;88.81;102147.16;5095839;28;20205;-76
2023/04/09 08:46:31;;;;;;;37.97;25.60;;;6.60;99.90;;;5.80;88.76;102145.25;5096314;28;20238;-76
2023/04/09 08:49:03;;;;;;;43.23;27.60;;;6.60;99.90;;;5.83;88.79;102151.22;5096121;28;20189;-77
2023/04/09 08:51:36;;;;;;;39.90;25.20;;;6.60;99.90;;;5.83;88.27;102150.34;5096045;28;20190;-76
2023/04/09 08:54:08;;;;;;;42.13;26.20;;;6.70;99.90;;;5.87;88.03;102146.59;5096123;28;20200;-76
2023/04/09 08:56:40;;;;;;;39.70;25.37;;;6.70;99.90;;;5.91;88.07;102153.44;5096021;28;20231;-76
2023/04/09 08:59:18;;;;;;;39.97;24.67;;;6.70;99.90;;;5.95;87.97;102149.63;5095561;28;20208;-76
2023/04/09 09:01:53;;;;;;;39.90;25.20;;;6.70;99.90;;;5.97;87.74;102142.41;5095928;28;20214;-76
2023/04/09 09:04:25;;;;;;;46.67;26.23;;;6.70;99.90;;;5.97;87.36;102147.72;5095780;28;20243;-76
2023/04/09 09:07:07;;;;;;;41.27;26.60;;;6.80;99.90;;;6.00;87.24;102142.22;5096054;28;20237;-75
2023/04/09 09:09:53;;;;;;;39.57;25.70;;;6.80;99.90;;;6.06;87.08;102136.53;5095840;28;20193;-76
2023/04/09 09:12:40;;;;;;;40.43;26.13;;;6.90;99.90;;;6.11;86.74;102142.41;5096406;28;20193;-77
2023/04/09 09:15:29;;;;;;;41.27;26.90;;;6.90;99.90;;;6.17;87.05;102127.84;5095334;28;20228;-76
2023/04/09 09:18:02;;;;;;;45.03;27.40;;;7.00;99.90;;;6.20;86.69;102133.81;5095243;28;20729;-76
2023/04/09 09:20:34;;;;;;;38.77;25.23;;;7.00;99.90;;;6.24;86.95;102132.69;5095545;28;20195;-76
2023/04/09 09:23:07;;;;;;;39.17;26.17;;;7.00;99.90;;;6.26;86.60;102138.78;5095145;28;20216;-76
2023/04/09 09:25:45;;;;;;;36.13;25.23;;;7.00;99.90;;;6.33;86.45;102131.25;5095423;28;20197;-76
2023/04/09 09:28:17;;;;;;;42.93;25.63;;;7.20;99.90;;;6.39;86.26;102137.03;5095329;28;20235;-76
2023/04/09 09:30:50;;;;;;;41.50;26.70;;;7.20;99.90;;;6.42;85.94;102134.16;5095327;28;20250;-76
2023/04/09 09:33:22;;;;;;;37.83;25.63;;;7.20;99.90;;;6.45;85.55;102133.94;5095259;28;20186;-76
2023/04/09 09:35:56;;;;;;;42.03;25.20;;;7.30;99.90;;;6.50;85.72;102128.34;5095451;28;20189;-76
2023/04/09 09:38:30;;;;;;;41.37;26.47;;;7.30;99.90;;;6.53;84.59;102130.78;5095183;28;20192;-76
2023/04/09 09:41:16;;;;;;;39.00;24.83;;;7.30;99.90;;;6.58;84.50;102126.88;5095361;28;20193;-76
2023/04/09 09:43:48;;;;;;;39.03;25.50;;;7.40;99.90;;;6.64;85.02;102131.78;5094646;28;20586;-76
2023/04/09 09:46:25;;;;;;;38.67;26.27;;;7.50;99.90;;;6.74;85.32;102123.22;5094918;28;20233;-76
2023/04/09 09:48:58;;;;;;;42.07;27.63;;;7.50;99.90;;;6.80;85.01;102128.13;5094980;28;20195;-76
2023/04/09 09:51:35;;;;;;;40.10;24.77;;;7.60;99.90;;;6.86;84.21;102122.38;5095015;28;20204;-76
2023/04/09 09:54:15;;;;;;;42.23;25.67;;;7.70;99.90;;;6.91;83.97;102125.59;5094963;28;20552;-76
2023/04/09 09:56:52;;;;;;;40.07;24.47;;;7.70;99.90;;;6.94;83.48;102133.38;5094736;28;20751;-76
2023/04/09 09:59:30;;;;;;;35.43;24.60;;;7.80;99.90;;;6.99;83.24;102131.25;5094401;28;20212;-76
2023/04/09 10:02:12;;;;;;;38.57;24.73;;;7.80;99.90;;;7.00;82.16;102124.97;5094818;28;20189;-76
2023/04/09 10:04:48;;;;;;;40.57;26.13;;;7.80;99.90;;;7.05;82.73;102130.84;5094626;28;20274;-76
2023/04/09 10:07:22;;;;;;;41.10;28.10;;;7.90;99.90;;;7.07;81.71;102128.91;5094251;28;20708;-76
2023/04/09 10:10:00;;;;;;;40.37;25.80;;;7.90;99.90;;;7.14;82.75;102132.88;5094422;28;20550;-76
2023/04/09 10:12:35;;;;;;;42.70;27.10;;;7.90;99.90;;;7.18;82.38;102126.38;5093639;28;20208;-76
2023/04/09 10:15:12;;;;;;;42.70;27.30;;;8.00;99.90;;;7.22;82.66;102127.88;5094232;28;20634;-76
2023/04/09 10:17:43;;;;;;;42.73;27.30;;;8.00;99.90;;;7.26;82.80;102131.19;5094360;28;20224;-76
2023/04/09 10:20:26;;;;;;;41.40;26.93;;;8.00;99.90;;;7.27;82.60;102125.75;5094463;28;20292;-76
2023/04/09 10:23:05;;;;;;;44.87;28.00;;;8.10;99.90;;;7.29;82.37;102126.50;5094030;28;20556;-76
2023/04/09 10:25:38;;;;;;;43.50;28.27;;;8.10;99.90;;;7.26;81.62;102126.69;5094375;28;20189;-76
2023/04/09 10:28:19;;;;;;;37.13;25.77;;;8.10;99.90;;;7.26;82.36;102117.88;5094208;28;20225;-76
2023/04/09 10:30:53;;;;;;;43.27;28.10;;;8.00;99.90;;;7.27;82.54;102128.41;5094263;28;20212;-76
2023/04/09 10:33:29;;;;;;;43.70;28.60;;;8.10;99.90;;;7.27;82.64;102127.56;5093928;28;20292;-76
2023/04/09 10:36:10;;;;;;;39.30;26.47;;;8.00;99.90;;;7.31;82.50;102121.06;5094119;28;20193;-75
2023/04/09 10:38:49;;;;;;;44.30;28.60;;;8.00;99.90;;;7.24;82.01;102112.63;5093829;28;20181;-76